KDLN/DLN METAR and TAF weather

Enter ICAO airport designator
Station Type Date Time Source
KDLN METAR 2019/07/17 17:53 UTC NOAA

KDLN 171753Z AUTO 22007KT 10SM CLR 19/10 A3001 RMK AO2 SLP121 T01890100 10189 20072 56010


Station Type Date Time Source
KDLN Decoded METAR 2019/07/17 17:53 UTC NOAA

DILLON AIRPORT, MT, United States (KDLN) 45-15N 112-33W 1591M
Jul 17, 2019 - 01:53 PM EDT / 2019.07.17 1753 UTC
Wind: from the SW (220 degrees) at 8 MPH (7 KT):0
Visibility: 10 mile(s):0
Sky conditions: clear
Temperature: 66.0 F (18.9 C)
Dew Point: 50.0 F (10.0 C)
Relative Humidity: 56%
Pressure (altimeter): 30.01 in. Hg (1016 hPa)
Pressure tendency: 0.03 inches (1.0 hPa) lower than three hours ago
ob: KDLN 171753Z AUTO 22007KT 10SM CLR 19/10 A3001 RMK AO2 SLP121 T01890100 10189 20072 56010
cycle: 18

Station Type Date Time Source
KDLN TAF UTC NOAA

Error!

Example: see airport list